createdAt,value
2018-08-23T00:00:14.188Z,20.80
2018-08-23T00:01:14.189Z,20.72
2018-08-23T00:02:14.192Z,20.70
2018-08-23T00:03:14.204Z,20.72
2018-08-23T00:04:14.195Z,20.66
2018-08-23T00:05:14.198Z,20.66
2018-08-23T00:06:14.200Z,20.70
2018-08-23T00:07:14.204Z,20.66
2018-08-23T00:08:14.216Z,20.62
2018-08-23T00:09:14.209Z,20.62
2018-08-23T00:10:14.235Z,20.65
2018-08-23T00:11:14.212Z,20.62
2018-08-23T00:12:14.212Z,20.60
2018-08-23T00:13:14.217Z,20.63
2018-08-23T00:14:14.224Z,20.52
2018-08-23T00:15:14.217Z,20.60
2018-08-23T00:16:14.222Z,20.51
2018-08-23T00:17:14.224Z,20.56
2018-08-23T00:18:14.225Z,20.48
2018-08-23T00:19:14.225Z,20.41
2018-08-23T00:20:14.226Z,20.44
2018-08-23T00:21:14.236Z,20.41
2018-08-23T00:22:14.235Z,20.51
2018-08-23T00:23:14.233Z,20.44
2018-08-23T00:24:14.239Z,20.51
2018-08-23T00:25:14.236Z,20.44
2018-08-23T00:26:14.239Z,20.44
2018-08-23T00:27:14.322Z,20.39
2018-08-23T00:28:14.243Z,20.39
2018-08-23T00:29:14.246Z,20.28
2018-08-23T00:30:14.247Z,20.34
2018-08-23T00:31:14.246Z,20.32
2018-08-23T00:32:14.250Z,20.31
2018-08-23T00:33:14.252Z,20.34
2018-08-23T00:34:14.254Z,20.28
2018-08-23T00:35:14.255Z,20.34
2018-08-23T00:36:14.256Z,20.36
2018-08-23T00:37:14.261Z,20.32
2018-08-23T00:38:14.259Z,20.39
2018-08-23T00:39:14.272Z,20.34
2018-08-23T00:40:14.263Z,20.39
2018-08-23T00:41:14.264Z,20.32
2018-08-23T00:42:14.269Z,20.39
2018-08-23T00:43:14.270Z,20.36
2018-08-23T00:44:14.271Z,20.41
2018-08-23T00:45:14.284Z,20.36
2018-08-23T00:46:14.273Z,20.32
2018-08-23T00:47:14.274Z,20.36
2018-08-23T00:48:14.276Z,20.29
2018-08-23T00:49:14.278Z,20.40
2018-08-23T00:50:14.281Z,20.31
2018-08-23T00:51:14.281Z,20.28
2018-08-23T00:52:14.282Z,20.28
2018-08-23T00:53:14.286Z,20.22
2018-08-23T00:54:14.334Z,20.25
2018-08-23T00:55:14.287Z,20.21
2018-08-23T00:56:14.290Z,20.21
2018-08-23T00:57:14.296Z,20.22
2018-08-23T00:58:14.297Z,20.21
2018-08-23T00:59:14.325Z,20.24
2018-08-23T01:00:14.296Z,20.21
2018-08-23T01:01:14.299Z,20.18
2018-08-23T01:02:14.301Z,20.21
2018-08-23T01:03:14.302Z,20.21
2018-08-23T01:04:14.310Z,20.18
2018-08-23T01:05:14.305Z,20.10
2018-08-23T01:06:14.308Z,20.09
2018-08-23T01:07:14.307Z,20.09
2018-08-23T01:08:14.310Z,20.10
2018-08-23T01:09:14.312Z,20.07
2018-08-23T01:10:14.313Z,20.10
2018-08-23T01:11:14.313Z,20.04
2018-08-23T01:12:14.318Z,20.04
2018-08-23T01:13:14.318Z,19.95
2018-08-23T01:14:14.320Z,20.00
2018-08-23T01:15:14.321Z,19.96
2018-08-23T01:16:14.323Z,19.96
2018-08-23T01:17:14.326Z,19.95
2018-08-23T01:18:14.326Z,20.03
2018-08-23T01:19:14.330Z,20.04
2018-08-23T01:20:14.333Z,20.06
2018-08-23T01:21:14.377Z,20.03
2018-08-23T01:22:14.334Z,19.91
2018-08-23T01:23:14.335Z,20.04
2018-08-23T01:24:14.335Z,20.06
2018-08-23T01:25:14.335Z,19.99
2018-08-23T01:26:14.337Z,19.95
2018-08-23T01:27:14.338Z,19.99
2018-08-23T01:28:14.343Z,20.03
2018-08-23T01:29:14.341Z,20.00
2018-08-23T01:30:14.343Z,19.96
2018-08-23T01:31:14.344Z,20.00
2018-08-23T01:32:14.347Z,19.89
2018-08-23T01:33:14.347Z,19.92
2018-08-23T01:34:14.350Z,19.88
2018-08-23T01:35:14.350Z,20.00
2018-08-23T01:36:14.353Z,19.88
2018-08-23T01:37:14.355Z,19.79
2018-08-23T01:38:14.355Z,19.85
2018-08-23T01:39:14.357Z,19.84
2018-08-23T01:40:14.357Z,19.86
2018-08-23T01:41:14.364Z,19.79
2018-08-23T01:42:14.360Z,19.81
2018-08-23T01:43:14.365Z,19.79
2018-08-23T01:44:14.365Z,19.84
2018-08-23T01:45:14.366Z,19.76
2018-08-23T01:46:14.368Z,19.79
2018-08-23T01:47:14.366Z,19.74
2018-08-23T01:48:14.367Z,19.82
2018-08-23T01:49:14.370Z,19.85
2018-08-23T01:50:14.371Z,19.77
2018-08-23T01:51:14.371Z,19.85
2018-08-23T01:52:14.373Z,19.77
2018-08-23T01:53:14.374Z,19.73
2018-08-23T01:54:14.378Z,19.84
2018-08-23T01:55:14.376Z,19.74
2018-08-23T01:56:14.381Z,19.76
2018-08-23T01:57:14.379Z,19.70
2018-08-23T01:58:14.387Z,19.71
2018-08-23T01:59:14.382Z,19.73
2018-08-23T02:00:14.385Z,19.71
2018-08-23T02:01:14.393Z,19.70
2018-08-23T02:02:14.389Z,19.54
2018-08-23T02:03:14.387Z,19.55
2018-08-23T02:04:14.392Z,19.56
2018-08-23T02:05:14.390Z,19.58
2018-08-23T02:06:14.422Z,19.51
2018-08-23T02:07:14.392Z,19.55
2018-08-23T02:08:14.396Z,19.55
2018-08-23T02:09:14.395Z,19.47
2018-08-23T02:10:14.398Z,19.54
2018-08-23T02:11:14.397Z,19.48
2018-08-23T02:12:14.405Z,19.47
2018-08-23T02:13:14.401Z,19.48
2018-08-23T02:14:14.402Z,19.45
2018-08-23T02:15:14.402Z,19.47
2018-08-23T02:16:14.405Z,19.44
2018-08-23T02:17:14.407Z,19.45
2018-08-23T02:18:14.407Z,19.52
2018-08-23T02:19:14.407Z,19.45
2018-08-23T02:20:14.418Z,19.49
2018-08-23T02:21:14.411Z,19.56
2018-08-23T02:22:14.413Z,19.55
2018-08-23T02:23:14.415Z,19.58
2018-08-23T02:24:14.416Z,19.49
2018-08-23T02:25:14.417Z,19.59
2018-08-23T02:26:14.417Z,19.59
2018-08-23T02:27:14.424Z,19.59
2018-08-23T02:28:14.422Z,19.49
2018-08-23T02:29:14.420Z,19.58
2018-08-23T02:30:14.425Z,19.51
2018-08-23T02:31:14.423Z,19.45
2018-08-23T02:32:14.425Z,19.54
2018-08-23T02:33:14.428Z,19.49
2018-08-23T02:34:14.425Z,19.48
2018-08-23T02:35:14.426Z,19.45
2018-08-23T02:36:14.429Z,19.49
2018-08-23T02:37:14.439Z,19.45
2018-08-23T02:38:14.475Z,19.47
2018-08-23T02:39:14.432Z,19.47
2018-08-23T02:40:14.470Z,19.40
2018-08-23T02:41:14.437Z,19.36
2018-08-23T02:42:14.436Z,19.49
2018-08-23T02:43:14.438Z,19.39
2018-08-23T02:44:14.440Z,19.44
2018-08-23T02:45:14.448Z,19.39
2018-08-23T02:46:14.455Z,19.39
2018-08-23T02:47:14.447Z,19.47
2018-08-23T02:48:14.443Z,19.36
2018-08-23T02:49:14.466Z,19.44
2018-08-23T02:50:14.447Z,19.39
2018-08-23T02:51:14.449Z,19.41
2018-08-23T02:52:14.451Z,19.41
2018-08-23T02:53:14.455Z,19.40
2018-08-23T02:54:14.450Z,19.45
2018-08-23T02:55:14.451Z,19.37
2018-08-23T02:56:14.457Z,19.34
2018-08-23T02:57:14.457Z,19.41
2018-08-23T02:58:14.467Z,19.40
2018-08-23T02:59:14.459Z,19.37
2018-08-23T03:00:14.459Z,19.41
2018-08-23T03:01:14.466Z,19.31
2018-08-23T03:02:14.469Z,19.37
2018-08-23T03:03:14.462Z,19.33
2018-08-23T03:04:14.464Z,19.33
2018-08-23T03:05:14.469Z,19.34
2018-08-23T03:06:14.465Z,19.31
2018-08-23T03:07:14.472Z,19.30
2018-08-23T03:08:14.469Z,19.34
2018-08-23T03:09:14.472Z,19.30
2018-08-23T03:10:14.471Z,19.34
2018-08-23T03:11:14.477Z,19.37
2018-08-23T03:12:14.473Z,19.26
2018-08-23T03:13:14.477Z,19.24
2018-08-23T03:14:14.579Z,19.26
2018-08-23T03:15:14.478Z,19.33
2018-08-23T03:16:14.477Z,19.39
2018-08-23T03:17:14.479Z,19.30
2018-08-23T03:18:36.028Z,19.34
2018-08-23T03:19:14.480Z,19.29
2018-08-23T03:20:14.482Z,19.26
2018-08-23T03:21:14.483Z,19.24
2018-08-23T03:22:14.503Z,19.26
2018-08-23T03:23:14.502Z,19.29
2018-08-23T03:24:14.522Z,19.29
2018-08-23T03:25:14.487Z,19.29
2018-08-23T03:26:14.490Z,19.30
2018-08-23T03:27:14.492Z,19.30
2018-08-23T03:28:14.497Z,19.24
2018-08-23T03:29:14.491Z,19.29
2018-08-23T03:30:14.501Z,19.29
2018-08-23T03:31:14.506Z,19.19
2018-08-23T03:32:14.496Z,19.26
2018-08-23T03:33:14.497Z,19.22
2018-08-23T03:34:14.496Z,19.31
2018-08-23T03:35:14.498Z,19.21
2018-08-23T03:36:14.500Z,19.19
2018-08-23T03:37:14.502Z,19.21
2018-08-23T03:38:14.510Z,19.24
2018-08-23T03:39:14.502Z,19.19
2018-08-23T03:40:14.504Z,19.24
2018-08-23T03:41:14.507Z,19.18
2018-08-23T03:42:14.507Z,19.24
2018-08-23T03:43:14.508Z,19.29
2018-08-23T03:44:14.511Z,19.31
2018-08-23T03:45:14.509Z,19.29
2018-08-23T03:46:14.511Z,19.19
2018-08-23T03:47:14.514Z,19.27
2018-08-23T03:48:14.513Z,19.19
2018-08-23T03:49:14.514Z,19.30
2018-08-23T03:50:14.514Z,19.30
2018-08-23T03:51:14.518Z,19.26
2018-08-23T03:52:14.516Z,19.27
2018-08-23T03:53:14.517Z,19.21
2018-08-23T03:54:14.519Z,19.24
2018-08-23T03:55:14.519Z,19.29
2018-08-23T03:56:14.526Z,19.14
2018-08-23T03:57:14.521Z,19.26
2018-08-23T03:58:14.526Z,19.18
2018-08-23T03:59:14.523Z,19.21
2018-08-23T04:00:14.524Z,19.18
2018-08-23T04:01:14.526Z,19.22
2018-08-23T04:02:14.528Z,19.19
2018-08-23T04:03:14.527Z,19.16
2018-08-23T04:04:14.527Z,19.21
2018-08-23T04:05:14.530Z,19.18
2018-08-23T04:06:14.532Z,19.12
2018-08-23T04:07:14.533Z,19.08
2018-08-23T04:08:14.534Z,19.12
2018-08-23T04:09:14.534Z,19.11
2018-08-23T04:10:14.535Z,19.08
2018-08-23T04:11:14.536Z,19.09
2018-08-23T04:12:14.536Z,19.16
2018-08-23T04:13:14.538Z,19.07
2018-08-23T04:14:14.542Z,19.15
2018-08-23T04:15:14.574Z,19.12
2018-08-23T04:16:14.563Z,19.16
2018-08-23T04:17:14.541Z,19.09
2018-08-23T04:18:14.543Z,19.09
2018-08-23T04:19:14.543Z,19.15
2018-08-23T04:20:14.543Z,19.09
2018-08-23T04:21:14.546Z,19.08
2018-08-23T04:22:14.545Z,19.15
2018-08-23T04:23:14.546Z,19.09
2018-08-23T04:24:14.547Z,19.04
2018-08-23T04:25:14.552Z,19.02
2018-08-23T04:26:14.556Z,19.00
2018-08-23T04:27:14.554Z,19.11
2018-08-23T04:28:14.552Z,19.02
2018-08-23T04:29:14.552Z,19.04
2018-08-23T04:30:14.554Z,19.04
2018-08-23T04:31:14.553Z,19.04
2018-08-23T04:32:14.555Z,19.00
2018-08-23T04:33:14.565Z,19.09
2018-08-23T04:34:14.589Z,19.07
2018-08-23T04:35:14.561Z,19.12
2018-08-23T04:36:14.560Z,19.08
2018-08-23T04:37:14.563Z,19.08
2018-08-23T04:38:14.561Z,19.11
2018-08-23T04:39:14.570Z,19.09
2018-08-23T04:40:14.561Z,19.14
2018-08-23T04:41:14.562Z,18.96
2018-08-23T04:42:14.563Z,19.12
2018-08-23T04:43:14.590Z,19.11
2018-08-23T04:44:14.580Z,19.08
2018-08-23T04:45:14.567Z,19.12
2018-08-23T04:46:14.569Z,19.12
2018-08-23T04:47:14.568Z,19.12
2018-08-23T04:48:14.567Z,19.11
2018-08-23T04:49:14.569Z,19.15
2018-08-23T04:50:14.573Z,19.18
2018-08-23T04:51:14.570Z,19.11
2018-08-23T04:52:14.572Z,19.15
2018-08-23T04:53:14.573Z,19.24
2018-08-23T04:54:14.575Z,19.29
2018-08-23T04:55:14.573Z,19.39
2018-08-23T04:56:14.574Z,19.54
2018-08-23T04:57:14.582Z,19.55
2018-08-23T04:58:14.576Z,19.69
2018-08-23T04:59:14.579Z,19.69
2018-08-23T05:00:14.578Z,19.67
2018-08-23T05:01:14.579Z,19.81
2018-08-23T05:02:14.581Z,19.94
2018-08-23T05:03:14.582Z,20.26
2018-08-23T05:04:14.582Z,20.18
2018-08-23T05:05:14.586Z,20.04
2018-08-23T05:06:14.587Z,20.09
2018-08-23T05:07:14.585Z,20.03
2018-08-23T05:08:14.589Z,20.03
2018-08-23T05:09:14.588Z,20.00
2018-08-23T05:10:14.592Z,19.94
2018-08-23T05:11:14.590Z,19.85
2018-08-23T05:12:14.596Z,19.88
2018-08-23T05:13:14.622Z,19.88
2018-08-23T05:14:14.601Z,19.94
2018-08-23T05:15:14.595Z,19.95
2018-08-23T05:16:14.597Z,19.91
2018-08-23T05:17:14.599Z,19.89
2018-08-23T05:18:14.600Z,19.85
2018-08-23T05:19:14.600Z,19.84
2018-08-23T05:20:14.602Z,19.85
2018-08-23T05:21:14.603Z,19.84
2018-08-23T05:22:14.605Z,19.88
2018-08-23T05:23:14.724Z,19.85
2018-08-23T05:24:14.609Z,19.88
2018-08-23T05:25:14.609Z,19.88
2018-08-23T05:26:14.610Z,19.89
2018-08-23T05:27:14.620Z,19.86
2018-08-23T05:28:14.613Z,19.89
2018-08-23T05:29:14.614Z,19.92
2018-08-23T05:30:14.622Z,19.99
2018-08-23T05:31:14.616Z,19.92
2018-08-23T05:32:14.636Z,19.94
2018-08-23T05:33:14.623Z,19.95
2018-08-23T05:34:14.621Z,20.10
2018-08-23T05:35:14.631Z,20.32
2018-08-23T05:36:14.682Z,20.44
2018-08-23T05:37:14.625Z,20.50
2018-08-23T05:38:14.628Z,20.90
2018-08-23T05:39:14.633Z,21.18
2018-08-23T05:40:14.661Z,21.32
2018-08-23T05:41:14.658Z,21.22
2018-08-23T05:42:14.636Z,21.11
2018-08-23T05:43:14.638Z,20.95
2018-08-23T05:44:14.646Z,20.67
2018-08-23T05:45:14.908Z,20.60
2018-08-23T05:46:14.642Z,20.48
2018-08-23T05:47:14.657Z,20.43
2018-08-23T05:48:14.645Z,20.52
2018-08-23T05:49:14.664Z,20.37
2018-08-23T05:50:14.647Z,20.41
2018-08-23T05:51:14.661Z,20.41
2018-08-23T05:52:14.669Z,20.29
2018-08-23T05:53:14.667Z,20.29
2018-08-23T05:54:14.662Z,20.31
2018-08-23T05:55:14.655Z,20.43
2018-08-23T05:56:14.660Z,20.41
2018-08-23T05:57:14.659Z,20.47
2018-08-23T05:58:14.666Z,20.43
2018-08-23T05:59:14.660Z,20.50
2018-08-23T06:00:14.665Z,20.44
2018-08-23T06:01:14.666Z,20.43
2018-08-23T06:02:14.668Z,20.47
2018-08-23T06:03:14.672Z,20.47
2018-08-23T06:04:14.670Z,20.50
2018-08-23T06:05:14.673Z,20.50
2018-08-23T06:06:14.711Z,20.52
2018-08-23T06:07:14.676Z,20.58
2018-08-23T06:08:14.709Z,20.65
2018-08-23T06:09:14.680Z,20.62
2018-08-23T06:10:14.683Z,20.65
2018-08-23T06:11:14.684Z,20.67
2018-08-23T06:12:14.684Z,20.70
2018-08-23T06:13:14.701Z,20.74
2018-08-23T06:14:14.740Z,20.67
2018-08-23T06:15:14.690Z,20.75
2018-08-23T06:16:14.691Z,20.75
2018-08-23T06:17:14.698Z,20.72
2018-08-23T06:18:14.698Z,20.77
2018-08-23T06:19:14.697Z,20.77
2018-08-23T06:20:14.701Z,20.72
2018-08-23T06:21:14.701Z,20.82
2018-08-23T06:22:14.703Z,20.74
2018-08-23T06:23:14.709Z,20.84
2018-08-23T06:24:14.717Z,20.84
2018-08-23T06:25:15.238Z,20.88
2018-08-23T06:26:15.014Z,20.84
2018-08-23T06:27:14.747Z,20.88
2018-08-23T06:28:14.716Z,20.88
2018-08-23T06:29:14.716Z,20.82
2018-08-23T06:30:14.719Z,20.85
2018-08-23T06:31:14.722Z,20.90
2018-08-23T06:32:14.723Z,20.85
2018-08-23T06:33:14.887Z,20.88
2018-08-23T06:34:14.727Z,20.85
2018-08-23T06:35:14.731Z,20.90
2018-08-23T06:36:14.729Z,20.93
2018-08-23T06:37:14.733Z,20.93
2018-08-23T06:38:14.736Z,20.93
2018-08-23T06:39:14.734Z,20.96
2018-08-23T06:40:14.739Z,20.95
2018-08-23T06:41:14.740Z,20.96
2018-08-23T06:42:14.742Z,20.85
2018-08-23T06:43:14.743Z,20.88
2018-08-23T06:44:14.744Z,21.00
2018-08-23T06:45:14.747Z,21.02
2018-08-23T06:46:14.808Z,21.06
2018-08-23T06:47:14.750Z,21.11
2018-08-23T06:48:14.751Z,21.07
2018-08-23T06:49:14.759Z,21.14
2018-08-23T06:50:14.755Z,21.00
2018-08-23T06:51:14.801Z,21.22
2018-08-23T06:52:14.764Z,21.12
2018-08-23T06:53:14.764Z,21.15
2018-08-23T06:54:14.764Z,21.18
2018-08-23T06:55:14.764Z,21.22
2018-08-23T06:56:14.767Z,21.27
2018-08-23T06:57:14.768Z,21.35
2018-08-23T06:58:14.779Z,21.33
2018-08-23T06:59:14.774Z,21.42
2018-08-23T07:00:14.775Z,21.35
2018-08-23T07:01:14.780Z,21.39
2018-08-23T07:02:14.778Z,21.51
2018-08-23T07:03:14.780Z,21.51
2018-08-23T07:04:14.780Z,21.51
2018-08-23T07:05:14.783Z,21.52
2018-08-23T07:06:14.785Z,21.61
2018-08-23T07:07:14.786Z,21.58
2018-08-23T07:08:14.789Z,21.64
2018-08-23T07:09:14.794Z,21.70
2018-08-23T07:10:14.795Z,21.72
2018-08-23T07:11:14.797Z,21.75
2018-08-23T07:12:14.798Z,21.76
2018-08-23T07:13:14.803Z,21.75
2018-08-23T07:14:14.802Z,21.70
2018-08-23T07:15:14.804Z,21.80
2018-08-23T07:16:14.806Z,21.89
2018-08-23T07:17:14.925Z,21.89
2018-08-23T07:18:14.815Z,21.88
2018-08-23T07:19:14.814Z,22.00
2018-08-23T07:20:14.819Z,22.02
2018-08-23T07:21:14.838Z,22.00
2018-08-23T07:22:14.824Z,22.07
2018-08-23T07:23:14.825Z,22.06
2018-08-23T07:24:14.849Z,22.10
2018-08-23T07:25:14.827Z,22.11
2018-08-23T07:26:14.833Z,22.11
2018-08-23T07:27:14.829Z,22.20
2018-08-23T07:28:14.832Z,22.23
2018-08-23T07:29:14.879Z,22.22
2018-08-23T07:30:14.896Z,22.18
2018-08-23T07:31:14.838Z,22.26
2018-08-23T07:32:14.843Z,22.30
2018-08-23T07:33:14.948Z,22.29
2018-08-23T07:34:14.846Z,22.29
2018-08-23T07:35:14.851Z,22.32
2018-08-23T07:36:14.851Z,22.36
2018-08-23T07:37:14.855Z,22.41
2018-08-23T07:38:14.857Z,22.44
2018-08-23T07:39:14.922Z,22.44
2018-08-23T07:40:14.862Z,22.48
2018-08-23T07:41:14.864Z,22.53
2018-08-23T07:42:14.868Z,22.47
2018-08-23T07:43:14.869Z,22.59
2018-08-23T07:44:14.875Z,22.55
2018-08-23T07:45:14.876Z,22.51
2018-08-23T07:46:14.878Z,22.66
2018-08-23T07:47:14.880Z,22.68
2018-08-23T07:48:14.885Z,22.76
2018-08-23T07:49:14.885Z,22.75
2018-08-23T07:50:14.889Z,22.73
2018-08-23T07:51:14.916Z,22.85
2018-08-23T07:52:14.892Z,22.87
2018-08-23T07:53:14.988Z,22.85
2018-08-23T07:54:14.911Z,22.88
2018-08-23T07:55:14.905Z,22.99
2018-08-23T07:56:14.916Z,22.96
2018-08-23T07:57:14.908Z,22.98
2018-08-23T07:58:14.908Z,22.98
2018-08-23T07:59:14.915Z,23.00
2018-08-23T08:00:14.930Z,23.03
2018-08-23T08:01:14.917Z,23.00
2018-08-23T08:02:14.920Z,23.02
2018-08-23T08:03:14.923Z,23.09
2018-08-23T08:04:14.924Z,23.10
2018-08-23T08:05:14.930Z,23.10
2018-08-23T08:06:14.931Z,23.25
2018-08-23T08:07:14.937Z,23.24
2018-08-23T08:08:14.937Z,23.23
2018-08-23T08:09:14.939Z,23.32
2018-08-23T08:10:14.942Z,23.36
2018-08-23T08:11:14.945Z,23.37
2018-08-23T08:12:15.011Z,23.46
2018-08-23T08:13:14.974Z,23.48
2018-08-23T08:14:15.106Z,23.58
2018-08-23T08:15:15.049Z,23.58
2018-08-23T08:16:14.960Z,23.55
2018-08-23T08:17:14.966Z,23.56
2018-08-23T08:18:14.969Z,23.69
2018-08-23T08:19:14.969Z,23.68
2018-08-23T08:20:15.001Z,23.77
2018-08-23T08:21:14.989Z,23.80
2018-08-23T08:22:14.999Z,23.83
2018-08-23T08:23:14.989Z,23.91
2018-08-23T08:24:15.066Z,23.91
2018-08-23T08:25:14.988Z,23.98
2018-08-23T08:26:15.011Z,24.01
2018-08-23T08:27:15.069Z,24.08
2018-08-23T08:28:15.002Z,24.16
2018-08-23T08:29:15.002Z,24.21
2018-08-23T08:30:15.004Z,24.24
2018-08-23T08:31:15.006Z,24.26
2018-08-23T08:32:15.009Z,24.20
2018-08-23T08:33:15.063Z,24.29
2018-08-23T08:34:15.018Z,24.35
2018-08-23T08:35:15.020Z,24.42
2018-08-23T08:36:15.023Z,24.32
2018-08-23T08:37:15.028Z,24.39
2018-08-23T08:38:15.032Z,24.43
2018-08-23T08:39:15.033Z,24.45
2018-08-23T08:40:15.047Z,24.53
2018-08-23T08:41:15.041Z,24.55
2018-08-23T08:42:15.047Z,24.63
2018-08-23T08:43:15.062Z,24.63
2018-08-23T08:44:15.048Z,24.69
2018-08-23T08:45:15.057Z,24.77
2018-08-23T08:46:15.058Z,24.80
2018-08-23T08:47:15.063Z,24.74
2018-08-23T08:48:15.063Z,24.92
2018-08-23T08:49:15.067Z,24.91
2018-08-23T08:50:15.071Z,24.91
2018-08-23T08:51:15.076Z,24.96
2018-08-23T08:52:15.076Z,24.99
2018-08-23T08:53:15.086Z,25.07
2018-08-23T08:54:15.085Z,25.11
2018-08-23T08:55:15.086Z,25.13
2018-08-23T08:56:15.091Z,25.18
2018-08-23T08:57:15.159Z,25.28
2018-08-23T08:58:15.105Z,25.31
2018-08-23T08:59:15.105Z,25.40
2018-08-23T09:00:15.155Z,25.40
2018-08-23T09:01:15.111Z,25.55
2018-08-23T09:02:15.116Z,25.53
2018-08-23T09:03:15.221Z,25.62
2018-08-23T09:04:15.120Z,25.72
2018-08-23T09:05:15.128Z,25.62
2018-08-23T09:06:15.128Z,25.69
2018-08-23T09:07:15.142Z,25.70
2018-08-23T09:08:15.134Z,25.78
2018-08-23T09:09:15.139Z,25.83
2018-08-23T09:10:15.145Z,25.88
2018-08-23T09:11:15.150Z,25.90
2018-08-23T09:12:15.152Z,26.03
2018-08-23T09:13:15.171Z,26.07
2018-08-23T09:14:15.163Z,26.07
2018-08-23T09:15:15.163Z,26.16
2018-08-23T09:16:15.166Z,26.16
2018-08-23T09:17:15.171Z,26.18
2018-08-23T09:18:15.178Z,26.23
2018-08-23T09:19:15.177Z,26.28
2018-08-23T09:20:15.183Z,26.33
2018-08-23T09:21:15.191Z,26.40
2018-08-23T09:22:15.191Z,26.48
2018-08-23T09:23:15.196Z,26.44
2018-08-23T09:24:15.198Z,26.58
2018-08-23T09:25:15.220Z,26.66
2018-08-23T09:26:15.208Z,26.77
2018-08-23T09:27:15.272Z,26.89
2018-08-23T09:28:15.216Z,26.97
2018-08-23T09:29:15.222Z,27.00
2018-08-23T09:30:15.226Z,27.14
2018-08-23T09:31:15.227Z,27.08
2018-08-23T09:32:15.292Z,27.14
2018-08-23T09:33:15.235Z,27.21
2018-08-23T09:34:15.243Z,27.29
2018-08-23T09:35:15.246Z,27.32
2018-08-23T09:36:15.248Z,27.33
2018-08-23T09:37:15.255Z,27.51
2018-08-23T09:38:15.262Z,27.48
2018-08-23T09:39:15.261Z,27.52
2018-08-23T09:40:15.269Z,27.55
2018-08-23T09:41:15.274Z,27.65
2018-08-23T09:42:15.277Z,27.63
2018-08-23T09:43:15.280Z,27.70
2018-08-23T09:44:15.287Z,27.75
2018-08-23T09:45:15.291Z,27.78
2018-08-23T09:46:15.289Z,27.87
2018-08-23T09:47:15.291Z,28.07
2018-08-23T09:48:15.297Z,28.25
2018-08-23T09:49:15.303Z,28.51
2018-08-23T09:50:15.362Z,28.69
2018-08-23T09:51:15.394Z,28.88
2018-08-23T09:52:15.365Z,29.05
2018-08-23T09:53:15.320Z,29.14
2018-08-23T09:54:15.328Z,29.22
2018-08-23T09:55:15.329Z,29.23
2018-08-23T09:56:15.344Z,29.38
2018-08-23T09:57:15.343Z,29.38
2018-08-23T09:58:15.343Z,29.41
2018-08-23T09:59:15.351Z,29.45
2018-08-23T10:00:15.354Z,29.63
2018-08-23T10:01:15.380Z,29.63
2018-08-23T10:02:15.369Z,29.75
2018-08-23T10:03:15.367Z,29.72
2018-08-23T10:04:15.420Z,29.73
2018-08-23T10:05:15.389Z,29.73
2018-08-23T10:06:15.393Z,29.72
2018-08-23T10:07:15.390Z,29.75
2018-08-23T10:08:15.403Z,29.79
2018-08-23T10:09:15.410Z,29.79
2018-08-23T10:10:15.404Z,29.90
2018-08-23T10:11:15.417Z,29.94
2018-08-23T10:12:15.411Z,29.98
2018-08-23T10:13:15.418Z,30.05
2018-08-23T10:14:15.427Z,30.05
2018-08-23T10:15:15.431Z,30.08
2018-08-23T10:16:15.432Z,30.18
2018-08-23T10:17:15.445Z,30.15
2018-08-23T10:18:15.446Z,30.23
2018-08-23T10:19:15.449Z,30.16
2018-08-23T10:20:15.456Z,30.15
2018-08-23T10:21:15.465Z,30.13
2018-08-23T10:22:15.467Z,30.28
2018-08-23T10:23:15.468Z,30.31
2018-08-23T10:24:15.479Z,30.43
2018-08-23T10:25:15.483Z,30.39
2018-08-23T10:26:15.487Z,30.47
2018-08-23T10:27:15.492Z,30.50
2018-08-23T10:28:15.496Z,30.54
2018-08-23T10:29:15.503Z,30.70
2018-08-23T10:30:15.537Z,30.55
2018-08-23T10:31:15.538Z,30.59
2018-08-23T10:32:15.536Z,30.55
2018-08-23T10:33:15.525Z,30.68
2018-08-23T10:34:15.531Z,30.63
2018-08-23T10:35:15.534Z,30.72
2018-08-23T10:36:15.539Z,30.78
2018-08-23T10:37:15.545Z,30.80
2018-08-23T10:38:15.601Z,30.94
2018-08-23T10:39:15.555Z,31.07
2018-08-23T10:40:15.560Z,31.05
2018-08-23T10:41:15.567Z,31.20
2018-08-23T10:42:15.570Z,31.25
2018-08-23T10:43:15.577Z,31.39
2018-08-23T10:44:15.651Z,31.51
2018-08-23T10:45:15.587Z,31.58
2018-08-23T10:46:15.598Z,31.56
2018-08-23T10:47:15.597Z,31.76
2018-08-23T10:48:15.603Z,31.74
2018-08-23T10:49:15.615Z,31.85
2018-08-23T10:50:15.617Z,31.89
2018-08-23T10:51:15.624Z,31.97
2018-08-23T10:52:15.629Z,32.01
2018-08-23T10:53:15.634Z,31.96
2018-08-23T10:54:15.641Z,32.03
2018-08-23T10:55:15.660Z,31.97
2018-08-23T10:56:15.657Z,31.93
2018-08-23T10:57:15.660Z,31.93
2018-08-23T10:58:15.665Z,31.90
2018-08-23T10:59:15.671Z,31.96
2018-08-23T11:00:15.684Z,31.97
2018-08-23T11:01:15.689Z,31.94
2018-08-23T11:02:15.691Z,31.99
2018-08-23T11:03:15.700Z,32.00
2018-08-23T11:04:15.709Z,31.93
2018-08-23T11:05:15.721Z,31.93
2018-08-23T11:06:15.720Z,31.97
2018-08-23T11:07:16.182Z,31.96
2018-08-23T11:08:15.731Z,31.93
2018-08-23T11:09:15.736Z,31.96
2018-08-23T11:10:15.751Z,31.97
2018-08-23T11:11:15.748Z,32.00
2018-08-23T11:12:15.757Z,31.99
2018-08-23T11:13:15.767Z,32.00
2018-08-23T11:14:15.768Z,32.00
2018-08-23T11:15:15.776Z,31.96
2018-08-23T11:16:15.785Z,31.96
2018-08-23T11:17:15.861Z,31.99
2018-08-23T11:18:15.793Z,31.96
2018-08-23T11:19:15.798Z,31.90
2018-08-23T11:20:15.804Z,31.93
2018-08-23T11:21:15.814Z,31.92
2018-08-23T11:22:15.819Z,31.90
2018-08-23T11:23:15.826Z,31.97
2018-08-23T11:24:15.829Z,32.00
2018-08-23T11:25:15.839Z,32.01
2018-08-23T11:26:15.847Z,31.97
2018-08-23T11:27:15.848Z,31.99
2018-08-23T11:28:15.853Z,31.94
2018-08-23T11:29:15.865Z,31.97
2018-08-23T11:30:15.865Z,31.90
2018-08-23T11:31:15.880Z,31.93
2018-08-23T11:32:15.884Z,31.92
2018-08-23T11:33:15.893Z,31.89
2018-08-23T11:34:15.904Z,31.89
2018-08-23T11:35:15.975Z,31.85
2018-08-23T11:36:15.907Z,31.76
2018-08-23T11:37:15.910Z,31.80
2018-08-23T11:38:15.943Z,31.77
2018-08-23T11:39:15.926Z,31.66
2018-08-23T11:40:15.928Z,31.69
2018-08-23T11:41:15.936Z,31.59
2018-08-23T11:42:15.940Z,31.54
2018-08-23T11:43:15.947Z,31.61
2018-08-23T11:44:15.952Z,31.56
2018-08-23T11:45:15.966Z,31.55
2018-08-23T11:46:15.966Z,31.54
2018-08-23T11:47:15.972Z,31.56
2018-08-23T11:48:15.980Z,31.70
2018-08-23T11:49:15.985Z,31.65
2018-08-23T11:50:15.995Z,31.71
2018-08-23T11:51:16.001Z,31.77
2018-08-23T11:52:16.002Z,31.85
2018-08-23T11:53:16.086Z,31.93
2018-08-23T11:54:16.028Z,31.97
2018-08-23T11:55:16.033Z,32.12
2018-08-23T11:56:16.027Z,32.15
2018-08-23T11:57:16.033Z,32.23
2018-08-23T11:58:16.039Z,32.26
2018-08-23T11:59:16.123Z,32.45
2018-08-23T12:00:16.052Z,32.43
2018-08-23T12:01:16.070Z,32.56
2018-08-23T12:02:16.143Z,32.59
2018-08-23T12:03:16.070Z,32.60
2018-08-23T12:04:16.078Z,32.52
2018-08-23T12:05:16.084Z,32.64
2018-08-23T12:06:16.091Z,32.53
2018-08-23T12:07:16.099Z,32.60
2018-08-23T12:08:16.103Z,32.60
2018-08-23T12:09:16.111Z,32.56
2018-08-23T12:10:16.116Z,32.55
2018-08-23T12:11:16.122Z,32.48
2018-08-23T12:12:16.130Z,32.46
2018-08-23T12:13:16.136Z,32.40
2018-08-23T12:14:16.145Z,32.41
2018-08-23T12:15:16.148Z,32.40
2018-08-23T12:16:16.155Z,32.37
2018-08-23T12:17:16.164Z,32.46
2018-08-23T12:18:16.171Z,32.52
2018-08-23T12:19:16.174Z,32.45
2018-08-23T12:20:16.184Z,32.46
2018-08-23T12:21:16.190Z,32.48
2018-08-23T12:22:16.199Z,32.59
2018-08-23T12:23:16.201Z,32.58
2018-08-23T12:24:16.207Z,32.56
2018-08-23T12:25:16.215Z,32.53
2018-08-23T12:26:16.285Z,32.60
2018-08-23T12:27:16.226Z,32.51
2018-08-23T12:28:16.236Z,32.59
2018-08-23T12:29:16.243Z,32.53
2018-08-23T12:30:16.247Z,32.58
2018-08-23T12:31:16.252Z,32.46
2018-08-23T12:32:16.389Z,32.51
2018-08-23T12:33:16.266Z,32.51
2018-08-23T12:34:16.295Z,32.48
2018-08-23T12:35:16.281Z,32.49
2018-08-23T12:36:16.286Z,32.49
2018-08-23T12:37:16.292Z,32.49
2018-08-23T12:38:16.347Z,32.43
2018-08-23T12:39:16.318Z,32.52
2018-08-23T12:40:16.317Z,32.68
2018-08-23T12:41:16.318Z,32.65
2018-08-23T12:42:16.326Z,32.71
2018-08-23T12:43:16.334Z,32.86
2018-08-23T12:44:16.338Z,32.82
2018-08-23T12:45:16.346Z,32.87
2018-08-23T12:46:16.356Z,32.86
2018-08-23T12:47:16.389Z,32.78
2018-08-23T12:48:16.545Z,32.82
2018-08-23T12:49:16.590Z,32.80
2018-08-23T12:50:16.388Z,32.73
2018-08-23T12:51:16.526Z,32.64
2018-08-23T12:52:16.605Z,32.68